sensor_id;sensor_type;location;lat;lon;timestamp;temperature;humidity
51383;DHT22;37475;43.358;1.248;2023-03-03T00:01:08;3.50;90.50
51383;DHT22;37475;43.358;1.248;2023-03-03T00:03:34;3.50;90.60
51383;DHT22;37475;43.358;1.248;2023-03-03T00:06:02;3.50;90.60
51383;DHT22;37475;43.358;1.248;2023-03-03T00:08:29;3.50;90.80
51383;DHT22;37475;43.358;1.248;2023-03-03T00:10:55;3.50;90.80
51383;DHT22;37475;43.358;1.248;2023-03-03T00:13:24;3.50;90.90
51383;DHT22;37475;43.358;1.248;2023-03-03T00:15:52;3.50;91.00
51383;DHT22;37475;43.358;1.248;2023-03-03T00:21:01;3.50;91.00
51383;DHT22;37475;43.358;1.248;2023-03-03T00:23:39;3.50;91.00
51383;DHT22;37475;43.358;1.248;2023-03-03T00:26:23;3.50;90.90
51383;DHT22;37475;43.358;1.248;2023-03-03T00:28:58;3.50;91.00
51383;DHT22;37475;43.358;1.248;2023-03-03T00:31:32;3.50;91.00
51383;DHT22;37475;43.358;1.248;2023-03-03T00:34:23;3.50;91.00
51383;DHT22;37475;43.358;1.248;2023-03-03T00:36:55;3.50;91.00
51383;DHT22;37475;43.358;1.248;2023-03-03T00:39:38;3.50;91.10
51383;DHT22;37475;43.358;1.248;2023-03-03T00:42:13;3.50;91.20
51383;DHT22;37475;43.358;1.248;2023-03-03T00:47:37;3.40;91.50
51383;DHT22;37475;43.358;1.248;2023-03-03T00:52:38;3.50;91.70
51383;DHT22;37475;43.358;1.248;2023-03-03T00:55:06;3.50;91.70
51383;DHT22;37475;43.358;1.248;2023-03-03T00:57:32;3.50;91.70
51383;DHT22;37475;43.358;1.248;2023-03-03T00:59:59;3.50;91.70
51383;DHT22;37475;43.358;1.248;2023-03-03T01:02:24;3.50;91.80
51383;DHT22;37475;43.358;1.248;2023-03-03T01:04:52;3.50;91.80
51383;DHT22;37475;43.358;1.248;2023-03-03T01:07:20;3.50;91.80
51383;DHT22;37475;43.358;1.248;2023-03-03T01:09:46;3.50;91.80
51383;DHT22;37475;43.358;1.248;2023-03-03T01:12:12;3.50;91.80
51383;DHT22;37475;43.358;1.248;2023-03-03T01:14:39;3.50;91.80
51383;DHT22;37475;43.358;1.248;2023-03-03T01:17:05;3.60;91.80
51383;DHT22;37475;43.358;1.248;2023-03-03T01:19:31;3.60;91.80
51383;DHT22;37475;43.358;1.248;2023-03-03T01:21:57;3.50;91.80
51383;DHT22;37475;43.358;1.248;2023-03-03T01:24:23;3.60;91.90
51383;DHT22;37475;43.358;1.248;2023-03-03T01:26:49;3.60;91.80
51383;DHT22;37475;43.358;1.248;2023-03-03T01:29:15;3.60;91.80
51383;DHT22;37475;43.358;1.248;2023-03-03T01:31:40;3.60;91.80
51383;DHT22;37475;43.358;1.248;2023-03-03T01:34:06;3.60;91.80
51383;DHT22;37475;43.358;1.248;2023-03-03T01:36:33;3.60;91.90
51383;DHT22;37475;43.358;1.248;2023-03-03T01:38:59;3.60;91.90
51383;DHT22;37475;43.358;1.248;2023-03-03T01:41:29;3.60;92.00
51383;DHT22;37475;43.358;1.248;2023-03-03T01:43:58;3.60;92.00
51383;DHT22;37475;43.358;1.248;2023-03-03T01:46:40;3.60;92.00
51383;DHT22;37475;43.358;1.248;2023-03-03T01:50:25;3.60;91.90
51383;DHT22;37475;43.358;1.248;2023-03-03T01:52:33;3.60;91.90
51383;DHT22;37475;43.358;1.248;2023-03-03T01:55:10;3.60;92.00
51383;DHT22;37475;43.358;1.248;2023-03-03T01:57:51;3.60;92.00
51383;DHT22;37475;43.358;1.248;2023-03-03T02:00:27;3.60;92.00
51383;DHT22;37475;43.358;1.248;2023-03-03T02:02:54;3.60;92.00
51383;DHT22;37475;43.358;1.248;2023-03-03T02:05:20;3.60;92.00
51383;DHT22;37475;43.358;1.248;2023-03-03T02:07:47;3.60;91.90
51383;DHT22;37475;43.358;1.248;2023-03-03T02:10:15;3.60;91.90
51383;DHT22;37475;43.358;1.248;2023-03-03T02:12:47;3.60;91.80
51383;DHT22;37475;43.358;1.248;2023-03-03T02:15:21;3.60;91.80
51383;DHT22;37475;43.358;1.248;2023-03-03T02:18:20;3.60;91.80
51383;DHT22;37475;43.358;1.248;2023-03-03T02:26:28;3.60;91.70
51383;DHT22;37475;43.358;1.248;2023-03-03T02:28:56;3.60;91.80
51383;DHT22;37475;43.358;1.248;2023-03-03T02:31:25;3.60;91.80
51383;DHT22;37475;43.358;1.248;2023-03-03T02:33:53;3.60;91.80
51383;DHT22;37475;43.358;1.248;2023-03-03T02:36:30;3.50;91.90
51383;DHT22;37475;43.358;1.248;2023-03-03T02:39:16;3.50;91.80
51383;DHT22;37475;43.358;1.248;2023-03-03T02:44:39;3.50;91.70
51383;DHT22;37475;43.358;1.248;2023-03-03T02:47:05;3.60;91.60
51383;DHT22;37475;43.358;1.248;2023-03-03T02:49:33;3.60;91.50
51383;DHT22;37475;43.358;1.248;2023-03-03T02:52:01;3.60;91.40
51383;DHT22;37475;43.358;1.248;2023-03-03T02:54:30;3.60;91.20
51383;DHT22;37475;43.358;1.248;2023-03-03T02:56:57;3.70;91.00
51383;DHT22;37475;43.358;1.248;2023-03-03T02:59:24;3.70;91.00
51383;DHT22;37475;43.358;1.248;2023-03-03T03:01:50;3.60;91.00
51383;DHT22;37475;43.358;1.248;2023-03-03T03:04:18;3.60;91.10
51383;DHT22;37475;43.358;1.248;2023-03-03T03:06:46;3.60;91.00
51383;DHT22;37475;43.358;1.248;2023-03-03T03:09:12;3.50;91.00
51383;DHT22;37475;43.358;1.248;2023-03-03T03:11:39;3.60;91.10
51383;DHT22;37475;43.358;1.248;2023-03-03T03:14:07;3.60;91.00
51383;DHT22;37475;43.358;1.248;2023-03-03T03:16:35;3.60;91.00
51383;DHT22;37475;43.358;1.248;2023-03-03T03:19:02;3.60;91.00
51383;DHT22;37475;43.358;1.248;2023-03-03T03:21:28;3.60;91.00
51383;DHT22;37475;43.358;1.248;2023-03-03T03:23:54;3.60;91.00
51383;DHT22;37475;43.358;1.248;2023-03-03T03:26:20;3.60;90.90
51383;DHT22;37475;43.358;1.248;2023-03-03T03:28:48;3.60;90.90
51383;DHT22;37475;43.358;1.248;2023-03-03T03:31:15;3.60;90.90
51383;DHT22;37475;43.358;1.248;2023-03-03T03:33:41;3.60;91.00
51383;DHT22;37475;43.358;1.248;2023-03-03T03:36:08;3.70;91.00
51383;DHT22;37475;43.358;1.248;2023-03-03T03:38:35;3.60;91.00
51383;DHT22;37475;43.358;1.248;2023-03-03T03:41:01;3.70;90.80
51383;DHT22;37475;43.358;1.248;2023-03-03T03:43:28;3.60;90.80
51383;DHT22;37475;43.358;1.248;2023-03-03T03:45:54;3.60;90.70
51383;DHT22;37475;43.358;1.248;2023-03-03T03:48:20;3.60;90.60
51383;DHT22;37475;43.358;1.248;2023-03-03T03:50:47;3.60;90.80
51383;DHT22;37475;43.358;1.248;2023-03-03T03:53:13;3.50;90.90
51383;DHT22;37475;43.358;1.248;2023-03-03T03:55:39;3.60;91.00
51383;DHT22;37475;43.358;1.248;2023-03-03T03:58:04;3.60;91.00
51383;DHT22;37475;43.358;1.248;2023-03-03T04:00:30;3.60;90.90
51383;DHT22;37475;43.358;1.248;2023-03-03T04:02:56;3.60;90.80
51383;DHT22;37475;43.358;1.248;2023-03-03T04:05:22;3.70;90.70
51383;DHT22;37475;43.358;1.248;2023-03-03T04:07:48;3.80;90.60
51383;DHT22;37475;43.358;1.248;2023-03-03T04:10:14;3.70;90.40
51383;DHT22;37475;43.358;1.248;2023-03-03T04:12:40;3.70;90.50
51383;DHT22;37475;43.358;1.248;2023-03-03T04:15:08;3.70;90.50
51383;DHT22;37475;43.358;1.248;2023-03-03T04:17:35;3.70;90.50
51383;DHT22;37475;43.358;1.248;2023-03-03T04:20:01;3.70;90.50
51383;DHT22;37475;43.358;1.248;2023-03-03T04:22:28;3.70;90.50
51383;DHT22;37475;43.358;1.248;2023-03-03T04:25:02;3.70;90.60
51383;DHT22;37475;43.358;1.248;2023-03-03T04:27:33;3.70;90.60
51383;DHT22;37475;43.358;1.248;2023-03-03T04:30:00;3.70;90.70
51383;DHT22;37475;43.358;1.248;2023-03-03T04:32:26;3.70;90.70
51383;DHT22;37475;43.358;1.248;2023-03-03T04:34:52;3.70;90.70
51383;DHT22;37475;43.358;1.248;2023-03-03T04:37:18;3.70;90.80
51383;DHT22;37475;43.358;1.248;2023-03-03T04:39:44;3.70;90.90
51383;DHT22;37475;43.358;1.248;2023-03-03T04:42:10;3.60;90.90
51383;DHT22;37475;43.358;1.248;2023-03-03T04:44:36;3.70;90.90
51383;DHT22;37475;43.358;1.248;2023-03-03T04:47:02;3.70;90.90
51383;DHT22;37475;43.358;1.248;2023-03-03T04:49:28;3.70;90.90
51383;DHT22;37475;43.358;1.248;2023-03-03T04:51:54;3.70;90.90
51383;DHT22;37475;43.358;1.248;2023-03-03T04:54:20;3.70;90.80
51383;DHT22;37475;43.358;1.248;2023-03-03T04:56:45;3.80;90.70
51383;DHT22;37475;43.358;1.248;2023-03-03T04:59:12;3.80;90.70
51383;DHT22;37475;43.358;1.248;2023-03-03T05:01:38;3.70;90.60
51383;DHT22;37475;43.358;1.248;2023-03-03T05:04:04;3.70;90.70
51383;DHT22;37475;43.358;1.248;2023-03-03T05:06:29;3.60;90.80
51383;DHT22;37475;43.358;1.248;2023-03-03T05:08:55;3.60;91.00
51383;DHT22;37475;43.358;1.248;2023-03-03T05:11:21;3.60;91.10
51383;DHT22;37475;43.358;1.248;2023-03-03T05:13:47;3.60;91.10
51383;DHT22;37475;43.358;1.248;2023-03-03T05:16:12;3.60;91.20
51383;DHT22;37475;43.358;1.248;2023-03-03T05:18:38;3.60;91.30
51383;DHT22;37475;43.358;1.248;2023-03-03T05:21:04;3.50;91.40
51383;DHT22;37475;43.358;1.248;2023-03-03T05:23:30;3.50;91.50
51383;DHT22;37475;43.358;1.248;2023-03-03T05:25:56;3.50;91.50
51383;DHT22;37475;43.358;1.248;2023-03-03T05:28:23;3.50;91.60
51383;DHT22;37475;43.358;1.248;2023-03-03T05:30:49;3.50;91.60
51383;DHT22;37475;43.358;1.248;2023-03-03T05:33:16;3.50;91.60
51383;DHT22;37475;43.358;1.248;2023-03-03T05:35:42;3.50;91.60
51383;DHT22;37475;43.358;1.248;2023-03-03T05:38:09;3.50;91.50
51383;DHT22;37475;43.358;1.248;2023-03-03T05:40:35;3.60;91.50
51383;DHT22;37475;43.358;1.248;2023-03-03T05:43:02;3.60;91.40
51383;DHT22;37475;43.358;1.248;2023-03-03T05:45:27;3.60;91.30
51383;DHT22;37475;43.358;1.248;2023-03-03T05:47:53;3.60;91.20
51383;DHT22;37475;43.358;1.248;2023-03-03T05:50:20;3.70;91.20
51383;DHT22;37475;43.358;1.248;2023-03-03T05:52:48;3.70;91.00
51383;DHT22;37475;43.358;1.248;2023-03-03T05:55:15;3.80;90.90
51383;DHT22;37475;43.358;1.248;2023-03-03T05:57:40;3.90;90.60
51383;DHT22;37475;43.358;1.248;2023-03-03T06:00:07;3.90;90.50
51383;DHT22;37475;43.358;1.248;2023-03-03T06:02:33;3.90;90.20
51383;DHT22;37475;43.358;1.248;2023-03-03T06:05:00;3.90;90.00
51383;DHT22;37475;43.358;1.248;2023-03-03T06:07:26;3.90;89.80
51383;DHT22;37475;43.358;1.248;2023-03-03T06:09:51;3.70;89.80
51383;DHT22;37475;43.358;1.248;2023-03-03T06:12:17;3.60;90.30
51383;DHT22;37475;43.358;1.248;2023-03-03T06:14:43;3.60;90.70
51383;DHT22;37475;43.358;1.248;2023-03-03T06:17:09;3.60;91.00
51383;DHT22;37475;43.358;1.248;2023-03-03T06:19:35;3.60;91.10
51383;DHT22;37475;43.358;1.248;2023-03-03T06:22:01;3.60;91.20
51383;DHT22;37475;43.358;1.248;2023-03-03T06:24:27;3.50;91.40
51383;DHT22;37475;43.358;1.248;2023-03-03T06:26:56;3.50;91.50
51383;DHT22;37475;43.358;1.248;2023-03-03T06:29:23;3.50;91.60
51383;DHT22;37475;43.358;1.248;2023-03-03T06:31:48;3.50;91.70
51383;DHT22;37475;43.358;1.248;2023-03-03T06:34:14;3.50;91.80
51383;DHT22;37475;43.358;1.248;2023-03-03T06:36:40;3.50;91.90
51383;DHT22;37475;43.358;1.248;2023-03-03T06:39:06;3.50;92.10
51383;DHT22;37475;43.358;1.248;2023-03-03T06:41:32;3.50;92.10
51383;DHT22;37475;43.358;1.248;2023-03-03T06:43:58;3.50;92.00
51383;DHT22;37475;43.358;1.248;2023-03-03T06:46:25;3.60;92.00
51383;DHT22;37475;43.358;1.248;2023-03-03T06:48:51;3.50;92.00
51383;DHT22;37475;43.358;1.248;2023-03-03T06:51:29;3.50;92.00
51383;DHT22;37475;43.358;1.248;2023-03-03T06:54:00;3.60;92.00
51383;DHT22;37475;43.358;1.248;2023-03-03T06:56:27;3.60;91.90
51383;DHT22;37475;43.358;1.248;2023-03-03T06:58:59;3.60;91.80
51383;DHT22;37475;43.358;1.248;2023-03-03T07:01:34;3.70;91.70
51383;DHT22;37475;43.358;1.248;2023-03-03T07:04:00;3.70;91.60
51383;DHT22;37475;43.358;1.248;2023-03-03T07:06:26;3.60;91.50
51383;DHT22;37475;43.358;1.248;2023-03-03T07:08:53;3.60;91.50
51383;DHT22;37475;43.358;1.248;2023-03-03T07:11:21;3.60;91.50
51383;DHT22;37475;43.358;1.248;2023-03-03T07:13:53;3.60;91.50
51383;DHT22;37475;43.358;1.248;2023-03-03T07:16:24;3.70;91.40
51383;DHT22;37475;43.358;1.248;2023-03-03T07:18:53;3.70;91.30
51383;DHT22;37475;43.358;1.248;2023-03-03T07:21:36;3.70;91.40
51383;DHT22;37475;43.358;1.248;2023-03-03T07:24:26;3.70;91.40
51383;DHT22;37475;43.358;1.248;2023-03-03T07:27:18;3.80;91.30
51383;DHT22;37475;43.358;1.248;2023-03-03T07:29:51;3.80;91.10
51383;DHT22;37475;43.358;1.248;2023-03-03T07:32:32;3.90;91.00
51383;DHT22;37475;43.358;1.248;2023-03-03T07:37:47;3.90;90.60
51383;DHT22;37475;43.358;1.248;2023-03-03T07:42:52;4.00;90.50
51383;DHT22;37475;43.358;1.248;2023-03-03T07:45:28;4.10;90.30
51383;DHT22;37475;43.358;1.248;2023-03-03T07:50:39;4.20;90.10
51383;DHT22;37475;43.358;1.248;2023-03-03T07:53:13;4.20;89.90
51383;DHT22;37475;43.358;1.248;2023-03-03T07:55:53;4.20;89.80
51383;DHT22;37475;43.358;1.248;2023-03-03T07:58:30;4.30;89.60
51383;DHT22;37475;43.358;1.248;2023-03-03T08:04:39;4.40;89.10
51383;DHT22;37475;43.358;1.248;2023-03-03T08:07:17;4.40;88.60
51383;DHT22;37475;43.358;1.248;2023-03-03T08:12:38;4.60;88.50
51383;DHT22;37475;43.358;1.248;2023-03-03T08:17:46;4.70;87.90
51383;DHT22;37475;43.358;1.248;2023-03-03T08:22:53;4.90;86.40
51383;DHT22;37475;43.358;1.248;2023-03-03T08:25:19;5.00;86.10
51383;DHT22;37475;43.358;1.248;2023-03-03T08:27:45;5.10;85.50
51383;DHT22;37475;43.358;1.248;2023-03-03T08:30:11;5.20;84.80
51383;DHT22;37475;43.358;1.248;2023-03-03T08:32:37;5.20;84.50
51383;DHT22;37475;43.358;1.248;2023-03-03T08:35:04;5.30;84.50
51383;DHT22;37475;43.358;1.248;2023-03-03T08:37:30;5.20;83.70
51383;DHT22;37475;43.358;1.248;2023-03-03T08:39:55;5.30;83.10
51383;DHT22;37475;43.358;1.248;2023-03-03T08:42:21;5.30;83.60
51383;DHT22;37475;43.358;1.248;2023-03-03T08:44:47;5.40;82.70
51383;DHT22;37475;43.358;1.248;2023-03-03T08:47:13;5.50;82.80
51383;DHT22;37475;43.358;1.248;2023-03-03T08:49:38;5.40;81.40
51383;DHT22;37475;43.358;1.248;2023-03-03T08:52:04;5.50;81.80
51383;DHT22;37475;43.358;1.248;2023-03-03T08:54:31;5.40;81.50
51383;DHT22;37475;43.358;1.248;2023-03-03T08:56:57;5.50;80.60
51383;DHT22;37475;43.358;1.248;2023-03-03T08:59:22;5.60;81.10
51383;DHT22;37475;43.358;1.248;2023-03-03T09:01:48;5.80;80.60
51383;DHT22;37475;43.358;1.248;2023-03-03T09:04:14;6.00;79.50
51383;DHT22;37475;43.358;1.248;2023-03-03T09:06:40;6.30;80.20
51383;DHT22;37475;43.358;1.248;2023-03-03T09:09:06;6.20;78.10
51383;DHT22;37475;43.358;1.248;2023-03-03T09:11:32;6.40;77.50
51383;DHT22;37475;43.358;1.248;2023-03-03T09:14:16;6.40;77.40
51383;DHT22;37475;43.358;1.248;2023-03-03T09:16:49;6.30;77.70
51383;DHT22;37475;43.358;1.248;2023-03-03T09:19:24;6.20;77.80
51383;DHT22;37475;43.358;1.248;2023-03-03T09:21:53;6.20;78.20
51383;DHT22;37475;43.358;1.248;2023-03-03T09:24:29;6.20;77.10
51383;DHT22;37475;43.358;1.248;2023-03-03T09:26:56;6.50;77.10
51383;DHT22;37475;43.358;1.248;2023-03-03T09:29:27;6.70;76.80
51383;DHT22;37475;43.358;1.248;2023-03-03T09:31:57;6.90;74.40
51383;DHT22;37475;43.358;1.248;2023-03-03T09:45:55;7.30;69.90
51383;DHT22;37475;43.358;1.248;2023-03-03T09:55:21;7.60;68.70
51383;DHT22;37475;43.358;1.248;2023-03-03T10:07:25;7.50;67.90
51383;DHT22;37475;43.358;1.248;2023-03-03T10:19:38;7.70;66.30
51383;DHT22;37475;43.358;1.248;2023-03-03T10:22:38;7.90;67.40
51383;DHT22;37475;43.358;1.248;2023-03-03T10:37:27;9.20;63.70
51383;DHT22;37475;43.358;1.248;2023-03-03T10:40:02;9.40;62.00
51383;DHT22;37475;43.358;1.248;2023-03-03T10:52:10;9.10;61.80
51383;DHT22;37475;43.358;1.248;2023-03-03T10:55:05;9.60;61.60
51383;DHT22;37475;43.358;1.248;2023-03-03T11:03:21;9.70;58.30
51383;DHT22;37475;43.358;1.248;2023-03-03T11:09:03;8.50;59.40
51383;DHT22;37475;43.358;1.248;2023-03-03T11:14:36;9.50;59.00
51383;DHT22;37475;43.358;1.248;2023-03-03T11:32:40;11.00;53.30
51383;DHT22;37475;43.358;1.248;2023-03-03T11:35:28;10.50;54.70
51383;DHT22;37475;43.358;1.248;2023-03-03T11:41:29;10.20;55.30
51383;DHT22;37475;43.358;1.248;2023-03-03T11:46:46;9.90;56.50
51383;DHT22;37475;43.358;1.248;2023-03-03T11:49:46;9.80;56.30
51383;DHT22;37475;43.358;1.248;2023-03-03T11:55:55;9.60;57.40
51383;DHT22;37475;43.358;1.248;2023-03-03T11:58:25;9.10;58.10
51383;DHT22;37475;43.358;1.248;2023-03-03T12:03:48;9.40;55.80
51383;DHT22;37475;43.358;1.248;2023-03-03T12:06:32;10.10;55.30
51383;DHT22;37475;43.358;1.248;2023-03-03T12:11:56;12.00;49.80
51383;DHT22;37475;43.358;1.248;2023-03-03T12:26:45;12.10;47.10
51383;DHT22;37475;43.358;1.248;2023-03-03T12:29:42;11.30;50.10
51383;DHT22;37475;43.358;1.248;2023-03-03T12:39:10;10.90;52.00
51383;DHT22;37475;43.358;1.248;2023-03-03T12:41:52;10.90;51.40
51383;DHT22;37475;43.358;1.248;2023-03-03T12:45:22;10.60;51.90
51383;DHT22;37475;43.358;1.248;2023-03-03T12:59:45;9.80;53.40
51383;DHT22;37475;43.358;1.248;2023-03-03T13:05:18;9.90;53.40
51383;DHT22;37475;43.358;1.248;2023-03-03T13:07:59;10.00;53.40
51383;DHT22;37475;43.358;1.248;2023-03-03T13:13:51;10.20;54.30
51383;DHT22;37475;43.358;1.248;2023-03-03T13:16:34;10.30;51.20
51383;DHT22;37475;43.358;1.248;2023-03-03T13:19:14;10.20;51.70
51383;DHT22;37475;43.358;1.248;2023-03-03T13:27:29;10.60;52.40
51383;DHT22;37475;43.358;1.248;2023-03-03T13:30:01;10.70;50.50
51383;DHT22;37475;43.358;1.248;2023-03-03T13:32:59;10.50;50.90
51383;DHT22;37475;43.358;1.248;2023-03-03T13:35:49;9.60;54.50
51383;DHT22;37475;43.358;1.248;2023-03-03T13:38:39;9.60;56.30
51383;DHT22;37475;43.358;1.248;2023-03-03T13:41:20;9.70;57.10
51383;DHT22;37475;43.358;1.248;2023-03-03T13:52:01;9.70;54.40
51383;DHT22;37475;43.358;1.248;2023-03-03T13:57:25;10.50;52.90
51383;DHT22;37475;43.358;1.248;2023-03-03T14:06:21;10.40;51.90
51383;DHT22;37475;43.358;1.248;2023-03-03T14:17:39;10.70;51.60
51383;DHT22;37475;43.358;1.248;2023-03-03T14:20:37;11.00;50.20
51383;DHT22;37475;43.358;1.248;2023-03-03T14:23:54;11.10;50.50
51383;DHT22;37475;43.358;1.248;2023-03-03T14:26:26;11.40;49.20
51383;DHT22;37475;43.358;1.248;2023-03-03T14:29:15;11.20;50.10
51383;DHT22;37475;43.358;1.248;2023-03-03T14:31:43;11.00;52.70
51383;DHT22;37475;43.358;1.248;2023-03-03T14:36:48;10.90;51.00
51383;DHT22;37475;43.358;1.248;2023-03-03T14:39:36;10.80;51.00
51383;DHT22;37475;43.358;1.248;2023-03-03T14:44:59;10.80;51.20
51383;DHT22;37475;43.358;1.248;2023-03-03T14:47:29;10.70;50.70
51383;DHT22;37475;43.358;1.248;2023-03-03T14:49:57;10.80;49.90
51383;DHT22;37475;43.358;1.248;2023-03-03T14:52:32;11.10;50.20
51383;DHT22;37475;43.358;1.248;2023-03-03T14:55:01;11.30;49.70
51383;DHT22;37475;43.358;1.248;2023-03-03T14:57:39;11.30;48.80
51383;DHT22;37475;43.358;1.248;2023-03-03T15:02:58;11.10;50.70
51383;DHT22;37475;43.358;1.248;2023-03-03T15:05:31;11.40;49.90
51383;DHT22;37475;43.358;1.248;2023-03-03T15:10:35;11.50;49.00
51383;DHT22;37475;43.358;1.248;2023-03-03T15:21:29;11.40;47.90
51383;DHT22;37475;43.358;1.248;2023-03-03T15:24:20;11.20;49.40
51383;DHT22;37475;43.358;1.248;2023-03-03T15:46:47;10.40;53.90
51383;DHT22;37475;43.358;1.248;2023-03-03T15:49:53;10.50;54.60
51383;DHT22;37475;43.358;1.248;2023-03-03T16:03:58;10.00;53.00
51383;DHT22;37475;43.358;1.248;2023-03-03T16:23:55;10.50;52.30
51383;DHT22;37475;43.358;1.248;2023-03-03T16:29:13;11.60;49.20
51383;DHT22;37475;43.358;1.248;2023-03-03T16:31:48;11.10;51.10
51383;DHT22;37475;43.358;1.248;2023-03-03T16:42:29;11.40;50.10
51383;DHT22;37475;43.358;1.248;2023-03-03T16:45:21;11.50;50.50
51383;DHT22;37475;43.358;1.248;2023-03-03T16:50:49;11.80;49.70
51383;DHT22;37475;43.358;1.248;2023-03-03T16:56:51;11.40;50.10
51383;DHT22;37475;43.358;1.248;2023-03-03T17:14:50;9.70;55.00
51383;DHT22;37475;43.358;1.248;2023-03-03T17:16:59;9.70;55.60
51383;DHT22;37475;43.358;1.248;2023-03-03T17:22:49;9.40;56.00
51383;DHT22;37475;43.358;1.248;2023-03-03T17:25:28;9.10;56.40
51383;DHT22;37475;43.358;1.248;2023-03-03T17:33:58;8.80;57.90
51383;DHT22;37475;43.358;1.248;2023-03-03T17:37:31;8.60;58.80
51383;DHT22;37475;43.358;1.248;2023-03-03T17:40:11;8.40;59.20
51383;DHT22;37475;43.358;1.248;2023-03-03T17:42:59;8.30;59.60
51383;DHT22;37475;43.358;1.248;2023-03-03T17:45:30;8.20;59.80
51383;DHT22;37475;43.358;1.248;2023-03-03T17:54:26;7.60;61.00
51383;DHT22;37475;43.358;1.248;2023-03-03T18:06:28;7.00;64.10
51383;DHT22;37475;43.358;1.248;2023-03-03T18:24:38;6.70;65.40
51383;DHT22;37475;43.358;1.248;2023-03-03T18:44:22;5.30;71.30
51383;DHT22;37475;43.358;1.248;2023-03-03T18:46:54;5.20;71.70
51383;DHT22;37475;43.358;1.248;2023-03-03T18:52:31;5.30;71.60
51383;DHT22;37475;43.358;1.248;2023-03-03T18:57:35;5.30;71.50
51383;DHT22;37475;43.358;1.248;2023-03-03T19:00:21;5.30;71.80
51383;DHT22;37475;43.358;1.248;2023-03-03T19:02:57;5.30;71.60
51383;DHT22;37475;43.358;1.248;2023-03-03T19:05:27;5.20;72.00
51383;DHT22;37475;43.358;1.248;2023-03-03T19:08:02;5.10;72.50
51383;DHT22;37475;43.358;1.248;2023-03-03T19:10:55;5.10;72.70
51383;DHT22;37475;43.358;1.248;2023-03-03T19:21:33;5.30;73.80
51383;DHT22;37475;43.358;1.248;2023-03-03T19:27:05;5.30;73.20
51383;DHT22;37475;43.358;1.248;2023-03-03T19:38:11;5.30;73.20
51383;DHT22;37475;43.358;1.248;2023-03-03T19:40:49;5.30;73.10
51383;DHT22;37475;43.358;1.248;2023-03-03T19:43:53;5.40;73.20
51383;DHT22;37475;43.358;1.248;2023-03-03T19:54:46;5.60;72.60
51383;DHT22;37475;43.358;1.248;2023-03-03T20:03:07;5.60;73.30
51383;DHT22;37475;43.358;1.248;2023-03-03T20:06:18;5.60;73.30
51383;DHT22;37475;43.358;1.248;2023-03-03T20:14:46;5.40;72.70
51383;DHT22;37475;43.358;1.248;2023-03-03T20:25:52;5.40;73.00
51383;DHT22;37475;43.358;1.248;2023-03-03T20:34:35;5.40;72.20
51383;DHT22;37475;43.358;1.248;2023-03-03T20:44:04;5.50;72.40
51383;DHT22;37475;43.358;1.248;2023-03-03T20:58:22;4.90;76.10
51383;DHT22;37475;43.358;1.248;2023-03-03T21:03:35;4.90;76.40
51383;DHT22;37475;43.358;1.248;2023-03-03T21:06:09;4.90;76.80
51383;DHT22;37475;43.358;1.248;2023-03-03T21:11:41;4.90;77.10
51383;DHT22;37475;43.358;1.248;2023-03-03T21:14:27;4.80;77.90
51383;DHT22;37475;43.358;1.248;2023-03-03T21:17:23;4.70;78.40
51383;DHT22;37475;43.358;1.248;2023-03-03T21:19:52;4.70;78.50
51383;DHT22;37475;43.358;1.248;2023-03-03T21:22:18;4.50;78.10
51383;DHT22;37475;43.358;1.248;2023-03-03T21:24:54;4.60;77.40
51383;DHT22;37475;43.358;1.248;2023-03-03T21:27:30;4.60;76.70
51383;DHT22;37475;43.358;1.248;2023-03-03T21:30:19;4.80;76.40
51383;DHT22;37475;43.358;1.248;2023-03-03T21:32:47;4.90;76.00
51383;DHT22;37475;43.358;1.248;2023-03-03T21:35:18;4.70;76.80
51383;DHT22;37475;43.358;1.248;2023-03-03T21:37:54;4.50;77.70
51383;DHT22;37475;43.358;1.248;2023-03-03T21:40:26;4.60;77.30
51383;DHT22;37475;43.358;1.248;2023-03-03T21:42:57;4.60;76.50
51383;DHT22;37475;43.358;1.248;2023-03-03T21:45:24;4.70;76.30
51383;DHT22;37475;43.358;1.248;2023-03-03T21:47:51;4.60;76.40
51383;DHT22;37475;43.358;1.248;2023-03-03T21:50:19;4.60;76.10
51383;DHT22;37475;43.358;1.248;2023-03-03T21:52:46;4.70;76.50
51383;DHT22;37475;43.358;1.248;2023-03-03T21:55:13;4.60;76.60
51383;DHT22;37475;43.358;1.248;2023-03-03T21:57:38;4.50;76.90
51383;DHT22;37475;43.358;1.248;2023-03-03T22:00:06;4.40;77.40
51383;DHT22;37475;43.358;1.248;2023-03-03T22:02:34;4.40;77.00
51383;DHT22;37475;43.358;1.248;2023-03-03T22:05:01;4.40;76.90
51383;DHT22;37475;43.358;1.248;2023-03-03T22:07:28;4.40;77.50
51383;DHT22;37475;43.358;1.248;2023-03-03T22:09:54;4.20;78.40
51383;DHT22;37475;43.358;1.248;2023-03-03T22:12:20;4.00;79.30
51383;DHT22;37475;43.358;1.248;2023-03-03T22:14:45;4.00;79.60
51383;DHT22;37475;43.358;1.248;2023-03-03T22:17:11;4.10;80.40
51383;DHT22;37475;43.358;1.248;2023-03-03T22:19:37;4.10;80.30
51383;DHT22;37475;43.358;1.248;2023-03-03T22:22:03;4.10;80.60
51383;DHT22;37475;43.358;1.248;2023-03-03T22:24:29;4.00;80.90
51383;DHT22;37475;43.358;1.248;2023-03-03T22:26:55;4.10;81.10
51383;DHT22;37475;43.358;1.248;2023-03-03T22:29:21;4.10;80.90
51383;DHT22;37475;43.358;1.248;2023-03-03T22:31:48;4.10;80.40
51383;DHT22;37475;43.358;1.248;2023-03-03T22:34:14;4.10;79.80
51383;DHT22;37475;43.358;1.248;2023-03-03T22:36:40;3.90;80.20
51383;DHT22;37475;43.358;1.248;2023-03-03T22:39:06;3.90;80.50
51383;DHT22;37475;43.358;1.248;2023-03-03T22:41:32;3.90;80.10
51383;DHT22;37475;43.358;1.248;2023-03-03T22:43:57;3.90;80.00
51383;DHT22;37475;43.358;1.248;2023-03-03T22:46:24;3.80;80.00
51383;DHT22;37475;43.358;1.248;2023-03-03T22:48:50;3.70;80.80
51383;DHT22;37475;43.358;1.248;2023-03-03T22:51:16;3.70;80.50
51383;DHT22;37475;43.358;1.248;2023-03-03T22:53:42;3.70;80.50
51383;DHT22;37475;43.358;1.248;2023-03-03T22:56:08;3.50;81.50
51383;DHT22;37475;43.358;1.248;2023-03-03T22:58:34;3.40;82.10
51383;DHT22;37475;43.358;1.248;2023-03-03T23:01:00;3.50;82.30
51383;DHT22;37475;43.358;1.248;2023-03-03T23:03:26;3.50;81.90
51383;DHT22;37475;43.358;1.248;2023-03-03T23:05:52;3.60;81.50
51383;DHT22;37475;43.358;1.248;2023-03-03T23:08:18;3.60;81.40
51383;DHT22;37475;43.358;1.248;2023-03-03T23:10:45;3.60;81.40
51383;DHT22;37475;43.358;1.248;2023-03-03T23:13:11;3.60;81.40
51383;DHT22;37475;43.358;1.248;2023-03-03T23:15:37;3.60;81.60
51383;DHT22;37475;43.358;1.248;2023-03-03T23:18:04;3.70;81.70
51383;DHT22;37475;43.358;1.248;2023-03-03T23:20:30;3.80;81.10
51383;DHT22;37475;43.358;1.248;2023-03-03T23:22:56;3.70;80.90
51383;DHT22;37475;43.358;1.248;2023-03-03T23:25:23;3.70;80.60
51383;DHT22;37475;43.358;1.248;2023-03-03T23:27:49;3.80;80.60
51383;DHT22;37475;43.358;1.248;2023-03-03T23:30:16;3.70;81.10
51383;DHT22;37475;43.358;1.248;2023-03-03T23:32:45;3.70;80.80
51383;DHT22;37475;43.358;1.248;2023-03-03T23:35:11;3.80;80.70
51383;DHT22;37475;43.358;1.248;2023-03-03T23:37:37;3.80;80.50
51383;DHT22;37475;43.358;1.248;2023-03-03T23:40:04;3.80;80.40
51383;DHT22;37475;43.358;1.248;2023-03-03T23:42:31;3.80;80.20